Time;durP1;ratioP1;P1;durP2;ratioP2;P2;SDS_P1;SDS_P2;PMS_P1;PMS_P2;Temp;Humidity;BMP_temperature;BMP_pressure;BME280_temperature;BME280_humidity;BME280_pressure;Samples;Min_cycle;Max_cycle;Signal;HPM_P1;HPM_P2
2022/02/20 00:00:55;;;;;;;19.62;9.08;;;;;;;4.95;82.30;100606.87;1757838;81;21532;-70
2022/02/20 00:03:23;;;;;;;18.85;7.15;;;;;;;4.93;82.33;100605.63;1757866;81;20920;-71
2022/02/20 00:05:49;;;;;;;17.12;8.25;;;;;;;4.93;82.35;100605.63;1757959;81;20872;-71
2022/02/20 00:08:16;;;;;;;15.68;7.42;;;;;;;4.94;82.34;100606.50;1741047;81;20989;-69
2022/02/20 00:10:44;;;;;;;17.70;8.13;;;;;;;4.94;82.34;100609.09;1758021;81;21346;-71
2022/02/20 00:13:11;;;;;;;14.65;8.30;;;;;;;4.94;82.34;100606.04;1758099;81;21089;-69
2022/02/20 00:15:39;;;;;;;17.12;6.83;;;;;;;4.93;82.33;100597.83;1757722;80;20912;-71
2022/02/20 00:18:07;;;;;;;14.00;7.80;;;;;;;4.94;82.32;100603.44;1758000;81;20904;-68
2022/02/20 00:20:34;;;;;;;12.45;7.22;;;;;;;4.93;82.30;100604.78;1757815;81;20997;-69
2022/02/20 00:23:02;;;;;;;14.53;7.60;;;;;;;4.91;82.29;100606.59;1757933;81;20948;-70
2022/02/20 00:25:31;;;;;;;16.77;7.05;;;;;;;4.89;82.36;100601.91;1757910;81;21124;-70
2022/02/20 00:27:59;;;;;;;13.22;7.87;;;;;;;4.87;82.43;100608.48;1758025;81;20912;-70
2022/02/20 00:30:26;;;;;;;13.48;7.70;;;;;;;4.86;82.48;100608.52;1757876;81;20944;-69
2022/02/20 00:32:56;;;;;;;15.38;8.30;;;;;;;4.84;82.53;100602.53;1758046;81;21065;-69
2022/02/20 00:35:23;;;;;;;15.78;8.08;;;;;;;4.83;82.54;100600.85;1757995;80;21400;-69
2022/02/20 00:37:50;;;;;;;13.25;7.87;;;;;;;4.83;82.57;100593.90;1758046;81;21476;-72
2022/02/20 00:40:17;;;;;;;17.02;8.18;;;;;;;4.84;82.58;100602.53;1757844;80;20975;-70
2022/02/20 00:42:44;;;;;;;17.25;9.63;;;;;;;4.83;82.57;100602.98;1758114;81;20928;-69
2022/02/20 00:45:11;;;;;;;17.45;8.38;;;;;;;4.82;82.58;100601.73;1757919;81;21363;-70
2022/02/20 00:47:38;;;;;;;18.17;9.13;;;;;;;4.83;82.59;100598.25;1757369;81;20920;-69
2022/02/20 00:50:07;;;;;;;24.50;9.70;;;;;;;4.81;82.63;100605.25;1744552;82;21125;-70
2022/02/20 00:52:35;;;;;;;14.33;9.20;;;;;;;4.82;82.63;100606.94;1744407;81;20960;-68
2022/02/20 00:55:02;;;;;;;20.50;11.45;;;;;;;4.82;82.63;100610.83;1744500;81;20854;-70
2022/02/20 00:57:29;;;;;;;17.40;9.33;;;;;;;4.84;82.61;100610.33;1744874;80;20941;-69
2022/02/20 00:59:56;;;;;;;18.73;10.08;;;;;;;4.85;82.58;100619.83;1744482;82;20949;-70
2022/02/20 01:02:23;;;;;;;21.50;11.15;;;;;;;4.87;82.58;100614.10;1744596;81;21146;-71
2022/02/20 01:04:53;;;;;;;24.90;10.88;;;;;;;4.90;82.47;100617.91;1744395;81;20917;-71
2022/02/20 01:07:21;;;;;;;24.00;10.75;;;;;;;4.91;82.39;100619.16;1744710;81;20854;-70
2022/02/20 01:09:48;;;;;;;18.52;10.93;;;;;;;4.94;82.31;100619.49;1744418;81;20933;-69
2022/02/20 01:12:16;;;;;;;21.37;10.72;;;;;;;4.98;82.31;100615.42;1744457;81;20976;-70
2022/02/20 01:14:45;;;;;;;24.52;12.45;;;;;;;5.03;82.19;100620.91;1744647;80;22180;-69
2022/02/20 01:17:12;;;;;;;17.48;11.12;;;;;;;5.04;81.90;100614.79;1744855;81;20881;-68
2022/02/20 01:19:39;;;;;;;26.07;11.75;;;;;;;5.05;81.96;100617.80;1744441;81;20988;-69
2022/02/20 01:22:06;;;;;;;23.42;11.35;;;;;;;5.08;81.84;100618.97;1744474;81;20968;-69
2022/02/20 01:24:33;;;;;;;23.35;11.05;;;;;;;5.10;81.72;100617.17;1744261;82;20886;-69
2022/02/20 01:27:00;;;;;;;25.20;11.78;;;;;;;5.12;81.57;100634.40;1744608;81;21141;-70
2022/02/20 01:29:27;;;;;;;19.55;10.55;;;;;;;5.15;81.41;100631.67;1744505;81;21469;-70
2022/02/20 01:31:54;;;;;;;22.00;12.53;;;;;;;5.18;81.30;100638.53;1744732;80;20893;-70
2022/02/20 01:34:21;;;;;;;20.90;12.20;;;;;;;5.18;81.00;100635.94;1744430;81;21428;-71
2022/02/20 01:36:48;;;;;;;22.30;12.20;;;;;;;5.18;81.00;100629.44;1744470;82;20893;-70
2022/02/20 01:39:17;;;;;;;22.32;12.00;;;;;;;5.16;80.91;100632.55;1744262;81;22011;-71
2022/02/20 01:41:44;;;;;;;21.93;11.25;;;;;;;5.15;80.78;100645.12;1744644;80;20841;-70
2022/02/20 01:44:11;;;;;;;23.77;11.50;;;;;;;5.12;80.51;100637.45;1744477;81;20960;-68
2022/02/20 01:46:46;;;;;;;26.87;12.53;;;;;;;5.05;80.39;100632.94;1744652;81;21002;-69
2022/02/20 01:49:19;;;;;;;24.15;11.73;;;;;;;4.99;80.31;100624.06;1744062;81;21462;-70
2022/02/20 01:51:47;;;;;;;;;;;;;;;4.89;80.31;100627.88;1747064;81;21202;-70
2022/02/20 01:54:14;;;;;;;21.97;11.97;;;;;;;4.80;80.39;100626.92;1744408;81;20120;-70
2022/02/20 01:56:44;;;;;;;22.17;11.48;;;;;;;4.71;80.51;100628.97;1744257;81;20908;-68
2022/02/20 01:59:13;;;;;;;23.30;11.38;;;;;;;4.62;80.67;100632.33;1742519;81;20861;-71
2022/02/20 02:01:54;;;;;;;22.75;11.15;;;;;;;4.56;80.78;100638.59;1743612;81;21019;-70
2022/02/20 02:04:26;;;;;;;20.97;11.38;;;;;;;4.50;80.90;100651.78;1742400;81;21179;-70
2022/02/20 02:06:55;;;;;;;19.95;12.18;;;;;;;4.43;81.00;100644.66;1743999;81;20945;-70
2022/02/20 02:09:26;;;;;;;25.77;11.03;;;;;;;4.40;81.04;100644.73;1734551;81;21358;-70
2022/02/20 02:12:02;;;;;;;21.80;10.55;;;;;;;4.37;81.05;100655.24;1690488;81;20871;-70
2022/02/20 02:14:55;;;;;;;22.32;11.78;;;;;;;4.32;81.09;100655.86;1703646;81;20885;-70
2022/02/20 02:17:39;;;;;;;31.45;12.20;;;;;;;4.29;81.10;100658.53;1744523;81;21120;-68
2022/02/20 02:20:18;;;;;;;24.25;11.22;;;;;;;4.24;81.14;100657.84;1742756;81;21448;-70
2022/02/20 02:23:03;;;;;;;17.55;9.45;;;;;;;4.21;81.11;100661.40;1744474;81;20857;-72
2022/02/20 02:25:32;;;;;;;24.40;10.32;;;;;;;4.19;81.10;100668.38;1742917;81;20874;-70
2022/02/20 02:28:00;;;;;;;17.30;9.95;;;;;;;4.17;81.11;100666.28;1742460;81;20850;-70
2022/02/20 02:30:35;;;;;;;17.55;10.78;;;;;;;4.17;81.11;100675.83;1743603;81;21135;-70
2022/02/20 02:33:01;;;;;;;24.37;10.58;;;;;;;4.15;80.98;100681.05;1744664;81;20862;-69
2022/02/20 02:35:30;;;;;;;25.00;10.45;;;;;;;4.11;80.92;100681.63;1744467;81;20897;-69
2022/02/20 02:37:57;;;;;;;18.87;9.50;;;;;;;4.09;80.88;100677.36;1744465;80;20983;-69
2022/02/20 02:40:24;;;;;;;19.48;8.93;;;;;;;4.06;80.81;100677.47;1733878;82;22546;-70
2022/02/20 02:42:53;;;;;;;19.48;10.05;;;;;;;4.03;80.71;100679.72;1744563;81;21395;-69
2022/02/20 02:45:26;;;;;;;18.95;9.38;;;;;;;4.01;80.56;100680.20;1744560;81;20877;-71
2022/02/20 02:47:53;;;;;;;22.65;10.28;;;;;;;4.00;80.45;100684.14;1744750;81;20952;-68
2022/02/20 02:50:20;;;;;;;17.52;10.03;;;;;;;3.95;80.27;100681.69;1744306;80;21470;-70
2022/02/20 02:52:46;;;;;;;16.57;9.03;;;;;;;3.92;80.06;100683.94;1744654;81;21035;-70
2022/02/20 02:55:14;;;;;;;20.55;10.80;;;;;;;3.86;79.83;100682.83;1733811;82;21171;-69
2022/02/20 02:57:41;;;;;;;14.63;10.68;;;;;;;3.82;79.67;100695.95;1744569;82;20857;-70
2022/02/20 03:00:09;;;;;;;17.02;9.83;;;;;;;3.76;79.64;100698.30;1744414;80;20987;-70
2022/02/20 03:02:36;;;;;;;16.42;9.18;;;;;;;3.71;79.71;100699.73;1744807;81;21011;-68
2022/02/20 03:05:04;;;;;;;19.55;8.80;;;;;;;3.66;79.79;100704.19;1744442;81;21382;-70
2022/02/20 03:07:34;;;;;;;19.73;8.93;;;;;;;3.61;79.92;100700.89;1744481;81;20833;-69
2022/02/20 03:10:02;;;;;;;17.07;9.18;;;;;;;3.57;80.07;100703.17;1744578;81;20917;-71
2022/02/20 03:12:31;;;;;;;20.80;9.00;;;;;;;3.53;80.19;100707.62;1744636;81;21363;-71
2022/02/20 03:14:59;;;;;;;18.05;9.28;;;;;;;3.53;80.25;100713.22;1744527;81;20980;-70
2022/02/20 03:17:27;;;;;;;22.40;9.15;;;;;;;3.51;80.28;100712.42;1744565;81;21448;-69
2022/02/20 03:19:54;;;;;;;19.37;8.98;;;;;;;3.50;80.26;100714.63;1744508;81;21150;-69
2022/02/20 03:22:21;;;;;;;20.37;10.08;;;;;;;3.48;80.25;100710.77;1734084;82;20960;-69
2022/02/20 03:24:49;;;;;;;20.08;8.60;;;;;;;3.48;80.21;100714.66;1744503;81;21469;-69
2022/02/20 03:27:16;;;;;;;21.17;8.20;;;;;;;3.49;80.19;100715.50;1744481;82;20999;-69
2022/02/20 03:29:44;;;;;;;18.17;9.30;;;;;;;3.48;80.09;100719.00;1744621;82;20881;-69
2022/02/20 03:32:11;;;;;;;16.07;8.30;;;;;;;3.47;80.06;100723.80;1744533;82;21180;-69
2022/02/20 03:34:39;;;;;;;18.92;9.30;;;;;;;3.44;79.93;100723.87;1744480;80;20972;-69
2022/02/20 03:37:07;;;;;;;18.05;9.75;;;;;;;3.41;79.81;100719.63;1744673;82;20889;-70
2022/02/20 03:39:35;;;;;;;15.35;8.63;;;;;;;3.37;79.74;100727.53;1744544;81;20955;-69
2022/02/20 03:42:04;;;;;;;22.65;9.25;;;;;;;3.34;79.68;100732.36;1744344;81;21360;-69
2022/02/20 03:44:32;;;;;;;22.90;9.35;;;;;;;3.32;79.62;100730.27;1721357;81;21975;-69
2022/02/20 03:47:01;;;;;;;15.63;8.08;;;;;;;3.28;79.59;100727.34;1743969;81;21386;-68
2022/02/20 03:49:28;;;;;;;20.43;8.10;;;;;;;3.23;79.60;100723.59;1749465;81;20896;-69
2022/02/20 03:52:00;;;;;;;14.40;7.42;;;;;;;3.22;79.54;100732.23;1757211;81;20889;-69
2022/02/20 03:54:28;;;;;;;19.23;7.03;;;;;;;3.21;79.55;100731.02;1757006;80;20955;-68
2022/02/20 03:56:55;;;;;;;13.53;6.95;;;;;;;3.19;79.46;100725.86;1758020;81;21499;-68
2022/02/20 03:59:23;;;;;;;12.80;7.17;;;;;;;3.21;79.34;100731.85;1720537;81;20845;-68
2022/02/20 04:01:51;;;;;;;15.23;7.33;;;;;;;3.20;79.14;100724.98;1740782;81;21481;-68
2022/02/20 04:04:19;;;;;;;14.50;7.22;;;;;;;3.20;79.03;100720.22;1757798;81;21366;-71
2022/02/20 04:06:46;;;;;;;11.48;7.42;;;;;;;3.20;78.80;100723.69;1757965;81;20998;-68
2022/02/20 04:09:12;;;;;;;17.95;7.62;;;;;;;3.19;78.62;100728.45;1758131;81;21932;-70
2022/02/20 04:11:40;;;;;;;15.15;6.30;;;;;;;3.20;78.43;100730.59;1757831;81;20881;-69
2022/02/20 04:14:08;;;;;;;14.73;7.67;;;;;;;3.18;78.14;100733.66;1756836;81;20892;-71
2022/02/20 04:16:38;;;;;;;17.02;7.78;;;;;;;3.15;77.86;100728.13;1752009;80;20909;-69
2022/02/20 04:19:05;;;;;;;13.88;7.53;;;;;;;3.14;77.60;100733.38;1758193;81;20999;-71
2022/02/20 04:21:33;;;;;;;15.85;7.50;;;;;;;3.11;77.47;100731.27;1757651;81;21195;-71
2022/02/20 04:24:02;;;;;;;14.60;7.55;;;;;;;3.10;77.32;100732.14;1757578;81;20892;-68
2022/02/20 04:26:29;;;;;;;16.27;8.35;;;;;;;3.11;77.13;100741.63;1757971;81;21410;-71
2022/02/20 04:28:56;;;;;;;14.63;7.08;;;;;;;3.11;76.67;100739.46;1758122;81;20948;-70
2022/02/20 04:31:23;;;;;;;17.27;8.10;;;;;;;3.11;76.43;100744.22;1757964;80;20923;-71
2022/02/20 04:33:51;;;;;;;11.00;6.90;;;;;;;3.13;76.12;100753.23;1757895;81;21088;-71
2022/02/20 04:36:18;;;;;;;19.42;8.03;;;;;;;3.13;75.74;100753.23;1757853;81;20932;-70
2022/02/20 04:38:47;;;;;;;15.05;7.65;;;;;;;3.10;75.37;100756.75;1757847;81;21386;-71
2022/02/20 04:41:14;;;;;;;12.15;7.05;;;;;;;3.08;75.06;100758.98;1757851;81;20874;-72
2022/02/20 04:43:43;;;;;;;14.43;7.15;;;;;;;3.06;74.71;100769.83;1757834;81;20849;-73
2022/02/20 04:46:10;;;;;;;9.90;6.30;;;;;;;3.03;74.48;100774.66;1757852;80;21438;-74
2022/02/20 04:48:37;;;;;;;10.70;6.47;;;;;;;3.02;74.32;100777.28;1757768;81;20928;-72
2022/02/20 04:51:06;;;;;;;10.72;6.03;;;;;;;3.00;74.11;100776.47;1757651;80;20990;-72
2022/02/20 04:53:34;;;;;;;13.22;6.40;;;;;;;2.99;74.04;100789.87;1758048;81;21406;-70
2022/02/20 04:56:00;;;;;;;15.53;5.53;;;;;;;3.00;73.82;100794.59;1757887;81;20916;-72
2022/02/20 04:58:30;;;;;;;11.30;5.35;;;;;;;3.00;73.63;100802.37;1757322;80;21990;-71
2022/02/20 05:00:58;;;;;;;11.43;5.30;;;;;;;2.99;73.44;100803.28;1757766;81;21398;-69
2022/02/20 05:03:43;;;;;;;11.25;5.90;;;;;;;2.99;73.28;100806.70;1757871;81;21030;-70
2022/02/20 05:06:27;;;;;;;8.73;5.58;;;;;;;2.98;73.02;100812.80;1756200;81;21005;-71
2022/02/20 05:08:51;;;;;;;12.13;6.45;;;;;;;2.94;72.85;100812.46;1757429;80;21537;-69
2022/02/20 05:11:24;;;;;;;12.20;6.40;;;;;;;2.92;72.66;100807.77;1757541;81;21170;-69
2022/02/20 05:13:58;;;;;;;11.63;5.90;;;;;;;2.89;72.50;100806.52;1757910;81;20971;-71
2022/02/20 05:16:26;;;;;;;14.83;7.15;;;;;;;2.88;72.33;100812.16;1757711;80;21019;-70
2022/02/20 05:18:54;;;;;;;9.88;5.33;;;;;;;2.90;72.28;100810.83;1758125;81;20992;-69
2022/02/20 05:21:21;;;;;;;11.50;5.75;;;;;;;2.92;72.11;100812.09;1757874;80;20861;-72
2022/02/20 05:23:49;;;;;;;16.05;7.37;;;;;;;2.97;71.95;100811.08;1758037;81;21158;-72
2022/02/20 05:26:16;;;;;;;9.95;6.42;;;;;;;2.99;71.72;100804.57;1757743;81;20995;-72
2022/02/20 05:28:43;;;;;;;12.43;5.92;;;;;;;2.99;71.61;100804.57;1757806;81;20882;-71
2022/02/20 05:31:12;;;;;;;20.08;10.23;;;;;;;2.99;71.37;100811.05;1757532;81;21045;-71
2022/02/20 05:33:42;;;;;;;17.90;9.78;;;;;;;3.01;71.16;100815.75;1740853;81;20908;-72
2022/02/20 05:36:09;;;;;;;16.73;9.28;;;;;;;3.01;71.09;100812.70;1757836;81;21414;-70
2022/02/20 05:38:53;;;;;;;11.28;6.17;;;;;;;2.99;71.11;100813.19;1757801;81;20864;-71
2022/02/20 05:41:20;;;;;;;9.23;4.87;;;;;;;3.03;71.00;100829.52;1757797;81;20920;-71
2022/02/20 05:43:50;;;;;;;8.85;4.25;;;;;;;3.13;70.82;100833.55;1757898;81;20869;-71
2022/02/20 05:46:17;;;;;;;6.67;3.92;;;;;;;3.52;70.76;100825.62;1757829;80;20991;-70
2022/02/20 05:48:45;;;;;;;11.10;6.10;;;;;;;4.05;69.65;100825.83;1757643;81;21911;-71
2022/02/20 05:51:13;;;;;;;11.48;5.17;;;;;;;4.46;68.32;100830.20;1757598;81;20932;-70
2022/02/20 05:53:45;;;;;;;9.03;5.20;;;;;;;4.82;66.85;100831.67;1756699;80;20924;-71
2022/02/20 05:56:11;;;;;;;9.20;5.37;;;;;;;5.17;66.11;100835.69;1757809;81;20876;-70
2022/02/20 05:58:46;;;;;;;11.22;5.60;;;;;;;5.57;64.96;100840.80;1757032;81;20947;-72
2022/02/20 06:01:13;;;;;;;7.83;5.05;;;;;;;6.13;64.16;100844.86;1757844;81;21503;-71
2022/02/20 06:03:42;;;;;;;14.87;6.75;;;;;;;6.82;62.73;100831.72;1757538;81;20928;-71
2022/02/20 06:06:30;;;;;;;11.03;5.70;;;;;;;7.59;60.90;100831.91;1755604;81;20975;-71
2022/02/20 06:09:00;;;;;;;12.47;6.08;;;;;;;8.43;58.87;100831.15;1756717;80;20889;-73
2022/02/20 06:11:30;;;;;;;13.90;7.87;;;;;;;9.18;56.25;100822.69;1755262;81;20940;-74
2022/02/20 06:14:17;;;;;;;13.30;7.03;;;;;;;9.80;54.08;100831.25;1757110;81;21191;-72
2022/02/20 06:17:05;;;;;;;16.90;7.62;;;;;;;10.42;52.02;100831.41;1756735;81;20904;-73
2022/02/20 06:19:51;;;;;;;19.77;8.40;;;;;;;10.96;51.07;100827.42;1757843;80;20884;-72
2022/02/20 06:22:22;;;;;;;15.58;8.38;;;;;;;11.61;49.35;100836.23;1757376;81;21438;-71
2022/02/20 06:24:51;;;;;;;15.55;7.87;;;;;;;12.08;47.51;100836.05;1755797;81;20983;-71
2022/02/20 06:27:26;;;;;;;16.50;9.33;;;;;;;12.55;46.18;100849.27;1756344;81;21124;-73
2022/02/20 06:29:53;;;;;;;15.65;8.48;;;;;;;12.94;44.76;100831.80;1757703;81;20881;-74
2022/02/20 06:32:20;;;;;;;14.25;8.25;;;;;;;13.29;43.78;100837.84;1758111;81;20932;-72
2022/02/20 06:34:48;;;;;;;15.00;9.03;;;;;;;13.58;43.50;100830.58;1757693;80;20901;-71
2022/02/20 06:37:16;;;;;;;12.20;7.83;;;;;;;13.92;42.56;100836.12;1757742;81;21386;-71
2022/02/20 06:39:45;;;;;;;15.23;8.05;;;;;;;14.33;41.69;100833.17;1757946;81;21110;-72
2022/02/20 06:42:14;;;;;;;15.35;8.45;;;;;;;14.66;40.63;100829.89;1757859;81;20873;-72
2022/02/20 06:44:42;;;;;;;13.25;7.37;;;;;;;14.95;39.68;100830.84;1757726;81;20865;-74
2022/02/20 06:47:23;;;;;;;17.37;6.75;;;;;;;14.39;39.26;100836.69;1729993;81;20947;-71
2022/02/20 06:49:54;;;;;;;12.63;6.25;;;;;;;13.65;39.71;100831.83;1754396;80;21370;-73
2022/02/20 06:52:40;;;;;;;10.75;5.67;;;;;;;13.65;39.71;100831.83;1744297;80;21559;-73
2022/02/20 06:55:22;;;;;;;10.68;5.10;;;;;;;12.79;40.60;100835.83;1744499;81;20972;-74
2022/02/20 06:57:58;;;;;;;14.33;7.00;;;;;;;12.02;41.81;100830.22;1744052;81;20980;-74
2022/02/20 07:00:24;;;;;;;11.95;7.17;;;;;;;11.34;42.74;100829.56;1744443;81;21375;-73
2022/02/20 07:04:33;;;;;;;18.73;8.25;;;;;;;10.56;44.51;100827.09;1854368;77;22617;-72
2022/02/20 07:07:00;;;;;;;15.20;7.62;;;;;;;10.10;45.41;100835.31;1822232;78;20974;-73
2022/02/20 07:09:27;;;;;;;13.35;7.55;;;;;;;9.75;46.24;100832.34;1822088;78;21103;-72
2022/02/20 07:11:54;;;;;;;17.20;8.03;;;;;;;9.48;47.11;100832.50;1822018;78;21444;-72
2022/02/20 07:14:21;;;;;;;14.23;8.50;;;;;;;9.22;47.67;100822.89;1822089;78;20962;-72
2022/02/20 07:16:49;;;;;;;14.35;6.85;;;;;;;8.99;48.49;100835.84;1821929;78;21706;-72
2022/02/20 07:19:16;;;;;;;11.45;6.35;;;;;;;8.74;48.54;100839.27;1822164;78;20926;-71
2022/02/20 07:21:43;;;;;;;10.75;5.90;;;;;;;8.43;49.03;100838.99;1822003;78;21559;-73
2022/02/20 07:24:11;;;;;;;13.45;6.10;;;;;;;8.16;49.73;100838.93;1822260;78;21433;-72
2022/02/20 07:26:38;;;;;;;10.53;6.33;;;;;;;7.98;50.61;100849.77;1822027;78;21017;-71
2022/02/20 07:29:05;;;;;;;13.65;6.03;;;;;;;7.85;50.92;100845.58;1822441;78;20848;-71
2022/02/20 07:31:32;;;;;;;17.67;6.72;;;;;;;7.71;50.92;100847.48;1821963;78;21040;-71
2022/02/20 07:33:59;;;;;;;14.83;8.08;;;;;;;7.56;51.23;100853.38;1822055;78;21127;-72
2022/02/20 07:36:25;;;;;;;17.90;7.75;;;;;;;7.38;51.78;100853.28;1821886;78;20903;-71
2022/02/20 07:38:52;;;;;;;18.48;9.68;;;;;;;7.28;52.54;100855.03;1822269;78;21336;-71
2022/02/20 07:41:19;;;;;;;15.50;9.08;;;;;;;7.21;52.66;100858.36;1821986;78;20959;-72
2022/02/20 07:43:48;;;;;;;16.23;10.45;;;;;;;7.09;52.53;100858.39;1822290;78;21408;-72
2022/02/20 07:46:17;;;;;;;21.77;11.10;;;;;;;7.04;53.09;100862.97;1821981;78;21165;-71
2022/02/20 07:48:45;;;;;;;22.77;10.53;;;;;;;6.99;53.07;100866.23;1821899;78;21445;-72
2022/02/20 07:51:13;;;;;;;16.80;10.00;;;;;;;6.92;53.25;100870.84;1821913;78;20872;-74
2022/02/20 07:53:41;;;;;;;15.30;9.70;;;;;;;6.82;53.52;100869.05;1822317;78;20946;-74
2022/02/20 07:56:09;;;;;;;12.65;7.75;;;;;;;6.79;53.93;100871.79;1821677;78;20919;-75
2022/02/20 07:58:38;;;;;;;20.70;7.28;;;;;;;6.79;53.87;100870.48;1821969;78;21341;-75
2022/02/20 08:01:06;;;;;;;13.48;7.22;;;;;;;6.78;53.99;100867.93;1821906;78;21353;-75
2022/02/20 08:03:32;;;;;;;12.40;6.97;;;;;;;6.76;53.84;100864.10;1823384;77;20994;-73
2022/02/20 08:06:00;;;;;;;18.55;8.18;;;;;;;6.77;54.08;100868.86;1825353;78;20954;-75
2022/02/20 08:08:28;;;;;;;11.75;7.53;;;;;;;6.76;53.92;100870.63;1825388;78;21369;-76
2022/02/20 08:10:55;;;;;;;15.93;7.80;;;;;;;6.77;53.93;100865.78;1825424;77;21133;-74
2022/02/20 08:13:23;;;;;;;18.73;8.45;;;;;;;6.77;54.21;100868.39;1825372;77;21380;-73
2022/02/20 08:15:49;;;;;;;17.10;9.10;;;;;;;6.81;54.33;100871.73;1824861;77;20917;-71
2022/02/20 08:18:17;;;;;;;17.45;9.03;;;;;;;6.84;54.38;100862.48;1824776;77;20939;-71
2022/02/20 08:20:45;;;;;;;20.77;10.18;;;;;;;6.87;54.85;100868.89;1824887;77;21022;-71
2022/02/20 08:23:13;;;;;;;14.87;8.88;;;;;;;6.96;54.76;100875.03;1825097;78;21116;-71
2022/02/20 08:25:41;;;;;;;19.50;10.18;;;;;;;7.17;53.52;100868.06;1824667;78;20911;-72
2022/02/20 08:28:10;;;;;;;14.43;6.97;;;;;;;7.71;53.17;100868.83;1825103;78;20931;-72
2022/02/20 08:30:39;;;;;;;16.87;9.55;;;;;;;8.50;51.44;100876.98;1823833;78;21495;-74
2022/02/20 08:33:05;;;;;;;15.10;8.95;;;;;;;9.28;49.08;100876.70;1825237;78;20909;-72
2022/02/20 08:35:34;;;;;;;18.45;10.53;;;;;;;9.97;48.06;100874.42;1824738;77;21564;-71
2022/02/20 08:38:02;;;;;;;15.00;8.73;;;;;;;10.62;46.53;100870.45;1825126;78;21432;-71
2022/02/20 08:40:30;;;;;;;18.48;8.80;;;;;;;11.35;45.65;100869.78;1824784;77;20880;-70
2022/02/20 08:42:57;;;;;;;15.20;8.03;;;;;;;12.02;43.62;100875.38;1824941;77;20907;-70
2022/02/20 08:45:25;;;;;;;16.17;9.98;;;;;;;12.71;42.61;100878.90;1824804;78;20932;-73
2022/02/20 08:47:52;;;;;;;18.12;9.85;;;;;;;13.31;40.79;100875.46;1824875;77;21149;-68
2022/02/20 08:50:19;;;;;;;17.40;9.85;;;;;;;13.84;40.12;100877.05;1824716;77;21496;-71
2022/02/20 08:52:46;;;;;;;16.57;9.25;;;;;;;14.28;39.12;100870.44;1824740;78;20887;-70
2022/02/20 08:55:13;;;;;;;20.62;10.78;;;;;;;14.99;37.61;100874.56;1824930;78;20931;-69
2022/02/20 08:57:43;;;;;;;19.23;9.75;;;;;;;14.99;37.61;100874.56;1824872;78;20978;-71
2022/02/20 09:00:11;;;;;;;18.80;9.40;;;;;;;15.25;37.53;100875.71;1824988;78;21165;-76
2022/02/20 09:02:39;;;;;;;17.17;9.25;;;;;;;15.36;36.98;100874.41;1825136;78;21057;-74
2022/02/20 09:05:07;;;;;;;17.48;10.32;;;;;;;15.44;36.71;100874.69;1820729;78;21381;-72
2022/02/20 09:07:34;;;;;;;13.03;9.10;;;;;;;15.57;35.65;100873.27;1821462;78;20848;-73
2022/02/20 09:10:04;;;;;;;15.95;9.75;;;;;;;15.78;35.82;100877.87;1821420;78;21013;-75
2022/02/20 09:12:31;;;;;;;17.60;12.15;;;;;;;16.00;35.63;100869.95;1821384;78;20931;-71
2022/02/20 09:14:58;;;;;;;19.50;10.93;;;;;;;16.25;34.34;100870.64;1821316;78;20915;-74
2022/02/20 09:17:26;;;;;;;17.12;9.00;;;;;;;16.40;33.93;100864.61;1821349;78;20916;-77
2022/02/20 09:19:53;;;;;;;15.55;8.58;;;;;;;16.45;33.92;100866.39;1821444;78;20915;-78
2022/02/20 09:22:20;;;;;;;14.43;9.05;;;;;;;16.53;34.17;100865.30;1821411;78;21435;-74
2022/02/20 09:24:48;;;;;;;14.38;8.58;;;;;;;16.73;34.12;100860.53;1821416;78;21146;-75
2022/02/20 09:27:15;;;;;;;13.68;8.00;;;;;;;16.99;33.74;100858.91;1821522;78;20871;-75
2022/02/20 09:29:43;;;;;;;16.90;7.78;;;;;;;17.22;32.38;100860.11;1821374;78;20864;-75
2022/02/20 09:32:11;;;;;;;18.05;8.33;;;;;;;17.31;32.01;100853.53;1821395;78;20974;-74
2022/02/20 09:34:38;;;;;;;11.55;7.78;;;;;;;17.25;31.86;100850.07;1821355;78;20883;-75
2022/02/20 09:37:05;;;;;;;11.88;7.70;;;;;;;17.17;31.88;100859.17;1821599;78;21160;-75
2022/02/20 09:39:33;;;;;;;13.70;8.23;;;;;;;17.05;31.14;100854.89;1821354;78;21317;-76
2022/02/20 09:42:01;;;;;;;9.48;6.17;;;;;;;16.96;31.81;100853.38;1821298;78;20951;-75
2022/02/20 09:44:28;;;;;;;11.00;7.55;;;;;;;16.96;31.15;100858.69;1821168;78;20916;-74
2022/02/20 09:46:56;;;;;;;12.18;8.13;;;;;;;16.94;31.08;100851.34;1821298;78;20884;-75
2022/02/20 09:49:27;;;;;;;16.37;9.15;;;;;;;16.93;31.13;100852.30;1821305;78;22000;-75
2022/02/20 09:51:57;;;;;;;13.18;8.58;;;;;;;17.00;30.57;100849.98;1821533;78;21062;-75
2022/02/20 09:54:26;;;;;;;13.60;8.20;;;;;;;17.05;31.11;100845.16;1821084;78;20959;-76
2022/02/20 09:56:53;;;;;;;9.30;6.15;;;;;;;17.10;30.88;100844.28;1821322;78;20925;-76
2022/02/20 09:59:20;;;;;;;11.00;5.95;;;;;;;17.14;30.79;100839.08;1821297;78;20884;-77
2022/02/20 10:02:12;;;;;;;10.45;6.05;;;;;;;17.03;30.14;100831.19;1821320;78;21365;-75
2022/02/20 10:04:52;;;;;;;11.53;5.67;;;;;;;16.72;30.26;100839.00;1821492;78;20973;-76
2022/02/20 10:07:35;;;;;;;12.18;5.28;;;;;;;16.50;31.55;100837.77;1821255;78;20975;-75
2022/02/20 10:10:13;;;;;;;9.48;5.25;;;;;;;16.55;30.36;100832.92;1821380;78;20927;-75
2022/02/20 10:12:40;;;;;;;11.22;6.55;;;;;;;16.47;31.37;100837.99;1821767;78;20954;-75
2022/02/20 10:15:30;;;;;;;11.12;6.72;;;;;;;16.56;31.24;100830.16;1821364;78;21940;-75
2022/02/20 10:18:17;;;;;;;10.32;6.17;;;;;;;16.67;30.89;100828.42;1821189;78;20872;-77
2022/02/20 10:21:04;;;;;;;14.45;6.08;;;;;;;16.81;30.44;100832.14;1821297;78;21398;-78
2022/02/20 10:23:52;;;;;;;6.97;3.62;;;;;;;16.83;31.34;100825.37;1821142;78;20970;-75
2022/02/20 10:26:47;;;;;;;7.58;3.80;;;;;;;16.82;31.10;100829.00;1821422;78;20927;-73
2022/02/20 10:29:33;;;;;;;4.45;2.65;;;;;;;16.99;30.88;100820.48;1821370;78;21573;-75
2022/02/20 10:32:00;;;;;;;5.62;3.35;;;;;;;17.30;31.16;100825.86;1821183;78;20951;-74
2022/02/20 10:34:29;;;;;;;5.72;4.55;;;;;;;17.49;29.97;100819.80;1821277;78;20883;-75
2022/02/20 10:37:01;;;;;;;6.30;4.17;;;;;;;17.29;30.17;100820.18;1821212;78;21014;-75
2022/02/20 10:39:36;;;;;;;8.00;4.00;;;;;;;16.93;30.42;100818.34;1821577;78;20966;-73
2022/02/20 10:42:14;;;;;;;5.42;3.30;;;;;;;16.52;31.08;100811.52;1821362;78;21820;-74
2022/02/20 10:44:59;;;;;;;5.12;3.62;;;;;;;16.31;31.25;100809.28;1821543;78;21428;-73
2022/02/20 10:47:26;;;;;;;7.75;4.22;;;;;;;16.15;31.73;100809.69;1821290;78;20998;-73
2022/02/20 10:49:54;;;;;;;7.72;3.77;;;;;;;15.99;32.05;100810.08;1821219;78;21372;-71
2022/02/20 10:52:27;;;;;;;8.25;5.55;;;;;;;15.81;31.92;100811.06;1821283;78;20931;-73
2022/02/20 10:55:10;;;;;;;10.23;4.55;;;;;;;15.42;32.18;100811.02;1821855;78;21125;-72
2022/02/20 10:57:37;;;;;;;9.25;6.08;;;;;;;15.04;32.64;100807.70;1819701;78;20908;-72
2022/02/20 11:00:16;;;;;;;5.95;3.95;;;;;;;14.68;32.97;100804.23;1821423;78;21355;-73
2022/02/20 11:02:43;;;;;;;5.08;3.37;;;;;;;14.29;33.80;100811.91;1821177;78;20959;-73
2022/02/20 11:05:12;;;;;;;4.92;2.77;;;;;;;14.23;34.65;100800.52;1823376;78;21507;-74
2022/02/20 11:07:40;;;;;;;7.03;3.55;;;;;;;14.31;34.47;100800.30;1824839;78;21163;-77
2022/02/20 11:10:09;;;;;;;5.37;2.67;;;;;;;14.31;34.47;100800.30;1824608;78;20911;-73
2022/02/20 11:12:37;;;;;;;5.30;1.98;;;;;;;14.44;35.18;100794.97;1825094;78;21392;-77
2022/02/20 11:15:08;;;;;;;3.75;2.47;;;;;;;14.60;34.77;100790.75;1824621;78;20923;-74
2022/02/20 11:17:36;;;;;;;5.17;2.12;;;;;;;14.66;34.25;100783.70;1825042;78;20859;-75
2022/02/20 11:20:05;;;;;;;5.03;2.52;;;;;;;14.75;34.71;100785.30;1824659;78;21200;-75
2022/02/20 11:22:38;;;;;;;4.75;2.95;;;;;;;14.88;34.75;100782.94;1824614;78;20954;-77
2022/02/20 11:25:05;;;;;;;3.90;2.60;;;;;;;14.85;34.83;100788.46;1824110;78;20954;-76
2022/02/20 11:27:36;;;;;;;2.65;2.20;;;;;;;14.85;34.83;100781.86;1824971;78;21416;-79
2022/02/20 11:30:05;;;;;;;5.85;2.62;;;;;;;14.82;34.71;100783.39;1824976;78;20911;-77
2022/02/20 11:32:33;;;;;;;5.53;1.75;;;;;;;14.66;35.42;100786.83;1824793;78;21840;-76
2022/02/20 11:35:00;;;;;;;5.37;1.60;;;;;;;14.66;35.42;100786.83;1824114;78;20923;-77